createdAt,value
2022-09-21T00:00:51.991Z,99.99
2022-09-21T00:01:51.972Z,99.70
2022-09-21T00:02:51.895Z,99.99
2022-09-21T00:03:51.908Z,99.17
2022-09-21T00:04:51.863Z,99.90
2022-09-21T00:05:51.841Z,99.99
2022-09-21T00:06:51.847Z,99.99
2022-09-21T00:07:51.832Z,99.90
2022-09-21T00:08:51.793Z,99.99
2022-09-21T00:09:51.828Z,99.99
2022-09-21T00:10:51.781Z,99.99
2022-09-21T00:11:55.154Z,99.99
2022-09-21T00:12:51.728Z,99.99
2022-09-21T00:13:51.711Z,99.99
2022-09-21T00:14:51.689Z,99.90
2022-09-21T00:15:51.722Z,99.99
2022-09-21T00:16:51.669Z,99.99
2022-09-21T00:17:51.641Z,99.99
2022-09-21T00:18:51.618Z,99.99
2022-09-21T00:19:51.608Z,99.99
2022-09-21T00:20:51.588Z,99.99
2022-09-21T00:21:51.599Z,99.99
2022-09-21T00:22:51.549Z,99.99
2022-09-21T00:23:51.537Z,99.99
2022-09-21T00:24:51.578Z,99.99
2022-09-21T00:25:51.501Z,99.99
2022-09-21T00:26:51.486Z,99.18
2022-09-21T00:27:51.472Z,98.57
2022-09-21T00:28:51.448Z,98.50
2022-09-21T00:29:51.435Z,98.30
2022-09-21T00:30:51.453Z,98.88
2022-09-21T00:31:51.434Z,98.88
2022-09-21T00:32:51.378Z,98.97
2022-09-21T00:33:51.363Z,98.97
2022-09-21T00:34:51.346Z,98.67
2022-09-21T00:35:51.331Z,98.30
2022-09-21T00:36:51.320Z,97.99
2022-09-21T00:37:51.306Z,98.82
2022-09-21T00:38:51.274Z,99.13
2022-09-21T00:39:51.267Z,98.45
2022-09-21T00:40:51.243Z,98.86
2022-09-21T00:41:51.228Z,98.91
2022-09-21T00:42:51.254Z,99.22
2022-09-21T00:43:51.196Z,99.22
2022-09-21T00:44:51.176Z,99.63
2022-09-21T00:45:51.185Z,99.99
2022-09-21T00:46:51.142Z,99.99
2022-09-21T00:47:51.127Z,99.99
2022-09-21T00:48:51.108Z,99.99
2022-09-21T00:49:51.092Z,99.38
2022-09-21T00:50:51.073Z,99.52
2022-09-21T00:51:51.086Z,99.43
2022-09-21T00:52:51.036Z,99.94
2022-09-21T00:53:51.022Z,99.94
2022-09-21T00:54:51.064Z,99.99
2022-09-21T00:55:50.989Z,99.99
2022-09-21T00:56:50.970Z,99.99
2022-09-21T00:57:50.980Z,99.99
2022-09-21T00:58:51.004Z,99.99
2022-09-21T00:59:50.919Z,99.99
2022-09-21T01:00:50.918Z,99.99
2022-09-21T01:01:50.945Z,99.99
2022-09-21T01:02:50.878Z,99.99
2022-09-21T01:03:50.852Z,99.99
2022-09-21T01:04:50.832Z,99.99
2022-09-21T01:05:50.816Z,99.99
2022-09-21T01:06:50.797Z,99.99
2022-09-21T01:07:50.812Z,99.99
2022-09-21T01:08:50.783Z,99.99
2022-09-21T01:09:50.746Z,99.99
2022-09-21T01:10:50.732Z,99.99
2022-09-21T01:11:50.712Z,99.99
2022-09-21T01:12:50.722Z,99.99
2022-09-21T01:13:50.679Z,99.33
2022-09-21T01:14:50.660Z,98.35
2022-09-21T01:15:50.645Z,96.95
2022-09-21T01:16:50.660Z,97.56
2022-09-21T01:17:50.608Z,98.19
2022-09-21T01:18:50.615Z,98.96
2022-09-21T01:19:50.574Z,98.96
2022-09-21T01:20:50.559Z,99.00
2022-09-21T01:21:50.543Z,99.00
2022-09-21T01:22:50.528Z,99.99
2022-09-21T01:23:50.512Z,99.99
2022-09-21T01:24:50.492Z,99.99
2022-09-21T01:25:50.472Z,99.99
2022-09-21T01:26:50.456Z,99.99
2022-09-21T01:27:50.441Z,99.99
2022-09-21T01:28:50.420Z,99.99
2022-09-21T01:29:50.435Z,99.99
2022-09-21T01:30:50.384Z,99.99
2022-09-21T01:31:50.385Z,99.99
2022-09-21T01:32:50.353Z,99.99
2022-09-21T01:33:50.346Z,99.99
2022-09-21T01:34:50.341Z,99.99
2022-09-21T01:35:50.300Z,99.99
2022-09-21T01:36:50.294Z,99.16
2022-09-21T01:37:50.265Z,99.37
2022-09-21T01:38:50.276Z,99.06
2022-09-21T01:39:50.252Z,99.99
2022-09-21T01:40:50.211Z,99.99
2022-09-21T01:41:50.196Z,99.57
2022-09-21T01:42:50.207Z,99.99
2022-09-21T01:43:50.169Z,99.99
2022-09-21T01:44:50.150Z,99.99
2022-09-21T01:45:50.226Z,99.99
2022-09-21T01:46:50.112Z,99.99
2022-09-21T01:47:50.090Z,99.99
2022-09-21T01:48:50.074Z,99.99
2022-09-21T01:49:50.088Z,99.99
2022-09-21T01:50:50.072Z,99.99
2022-09-21T01:51:50.035Z,99.99
2022-09-21T01:52:50.008Z,99.99
2022-09-21T01:53:49.990Z,99.99
2022-09-21T01:54:50.004Z,99.99
2022-09-21T01:55:49.956Z,99.99
2022-09-21T01:56:49.934Z,99.99
2022-09-21T01:57:49.940Z,99.99
2022-09-21T01:58:49.901Z,99.99
2022-09-21T01:59:49.919Z,99.99
2022-09-21T02:00:49.894Z,99.99
2022-09-21T02:01:49.928Z,99.99
2022-09-21T02:02:49.931Z,99.99
2022-09-21T02:03:49.826Z,99.99
2022-09-21T02:04:49.872Z,98.85
2022-09-21T02:05:49.798Z,99.37
2022-09-21T02:06:50.018Z,99.16
2022-09-21T02:07:50.289Z,99.57
2022-09-21T02:08:49.776Z,99.68
2022-09-21T02:09:49.944Z,99.99
2022-09-21T02:10:49.735Z,99.57
2022-09-21T02:11:50.135Z,99.37
2022-09-21T02:12:50.101Z,99.57
2022-09-21T02:13:49.776Z,99.47
2022-09-21T02:14:49.637Z,99.37
2022-09-21T02:15:49.669Z,99.06
2022-09-21T02:16:49.626Z,99.37
2022-09-21T02:17:49.619Z,99.16
2022-09-21T02:18:49.628Z,98.96
2022-09-21T02:19:49.637Z,99.26
2022-09-21T02:20:49.545Z,99.06
2022-09-21T02:21:49.513Z,99.06
2022-09-21T02:22:49.521Z,99.16
2022-09-21T02:23:49.478Z,98.54
2022-09-21T02:24:49.486Z,98.58
2022-09-21T02:25:49.644Z,98.79
2022-09-21T02:26:49.752Z,99.41
2022-09-21T02:27:49.403Z,99.41
2022-09-21T02:28:49.384Z,99.47
2022-09-21T02:29:50.301Z,99.21
2022-09-21T02:30:49.458Z,99.06
2022-09-21T02:31:49.745Z,99.31
2022-09-21T02:32:49.328Z,99.00
2022-09-21T02:33:49.951Z,99.52
2022-09-21T02:34:49.566Z,99.16
2022-09-21T02:35:49.459Z,99.47
2022-09-21T02:36:50.237Z,98.44
2022-09-21T02:37:49.536Z,98.65
2022-09-21T02:38:49.223Z,98.54
2022-09-21T02:39:49.269Z,99.06
2022-09-21T02:40:49.197Z,97.97
2022-09-21T02:41:49.299Z,98.07
2022-09-21T02:42:49.430Z,98.28
2022-09-21T02:43:49.128Z,99.00
2022-09-21T02:44:49.172Z,99.41
2022-09-21T02:45:49.515Z,99.06
2022-09-21T02:46:49.295Z,99.10
2022-09-21T02:47:49.074Z,98.96
2022-09-21T02:48:49.179Z,99.21
2022-09-21T02:49:49.712Z,99.26
2022-09-21T02:50:49.362Z,99.37
2022-09-21T02:51:49.193Z,99.57
2022-09-21T02:52:49.093Z,99.26
2022-09-21T02:53:49.146Z,98.54
2022-09-21T02:54:49.098Z,98.69
2022-09-21T02:55:51.991Z,97.92
2022-09-21T02:56:49.035Z,98.13
2022-09-21T02:57:49.045Z,98.54
2022-09-21T02:58:49.764Z,97.55
2022-09-21T02:59:48.999Z,97.25
2022-09-21T03:00:48.871Z,96.83
2022-09-21T03:01:48.904Z,98.01
2022-09-21T03:02:48.842Z,98.49
2022-09-21T03:03:48.773Z,98.43
2022-09-21T03:04:48.789Z,98.84
2022-09-21T03:05:48.777Z,98.63
2022-09-21T03:06:48.723Z,98.74
2022-09-21T03:07:48.704Z,98.53
2022-09-21T03:08:48.712Z,99.25
2022-09-21T03:09:48.674Z,99.61
2022-09-21T03:10:48.656Z,99.99
2022-09-21T03:11:48.687Z,99.99
2022-09-21T03:12:48.618Z,99.99
2022-09-21T03:13:48.599Z,99.99
2022-09-21T03:14:48.622Z,99.99
2022-09-21T03:15:48.597Z,99.99
2022-09-21T03:16:48.581Z,99.99
2022-09-21T03:17:48.592Z,99.99
2022-09-21T03:18:48.732Z,99.99
2022-09-21T03:19:48.734Z,99.99
2022-09-21T03:20:48.859Z,99.99
2022-09-21T03:21:48.690Z,98.75
2022-09-21T03:22:48.478Z,98.90
2022-09-21T03:23:48.538Z,98.49
2022-09-21T03:24:48.484Z,98.49
2022-09-21T03:25:48.410Z,99.00
2022-09-21T03:26:48.424Z,99.00
2022-09-21T03:27:48.391Z,98.07
2022-09-21T03:28:48.371Z,98.18
2022-09-21T03:29:48.352Z,98.28
2022-09-21T03:30:48.313Z,98.58
2022-09-21T03:31:48.309Z,99.00
2022-09-21T03:32:48.282Z,98.28
2022-09-21T03:33:48.250Z,99.31
2022-09-21T03:34:48.255Z,99.21
2022-09-21T03:35:48.249Z,98.79
2022-09-21T03:36:48.292Z,99.31
2022-09-21T03:37:48.215Z,99.00
2022-09-21T03:38:48.464Z,98.54
2022-09-21T03:39:48.214Z,98.54
2022-09-21T03:40:48.238Z,98.58
2022-09-21T03:41:48.197Z,98.28
2022-09-21T03:42:48.139Z,98.49
2022-09-21T03:43:48.094Z,98.38
2022-09-21T03:44:48.078Z,98.28
2022-09-21T03:45:48.082Z,97.97
2022-09-21T03:46:48.053Z,98.28
2022-09-21T03:47:48.003Z,98.22
2022-09-21T03:48:47.986Z,99.05
2022-09-21T03:49:48.020Z,99.15
2022-09-21T03:50:47.948Z,99.87
2022-09-21T03:51:47.958Z,99.99
2022-09-21T03:52:47.918Z,99.99
2022-09-21T03:53:47.911Z,99.99
2022-09-21T03:54:47.878Z,99.99
2022-09-21T03:55:47.898Z,99.99
2022-09-21T03:56:47.912Z,99.99
2022-09-21T03:57:47.820Z,99.99
2022-09-21T03:58:47.816Z,99.99
2022-09-21T03:59:47.787Z,99.99
2022-09-21T04:00:47.800Z,99.99
2022-09-21T04:01:47.803Z,99.99
2022-09-21T04:02:47.776Z,99.99
2022-09-21T04:03:47.716Z,99.99
2022-09-21T04:04:47.699Z,99.99
2022-09-21T04:05:47.689Z,99.99
2022-09-21T04:06:47.813Z,99.99
2022-09-21T04:07:47.658Z,99.99
2022-09-21T04:08:47.638Z,99.68
2022-09-21T04:09:47.607Z,98.96
2022-09-21T04:10:47.596Z,99.06
2022-09-21T04:11:47.578Z,99.06
2022-09-21T04:12:47.610Z,98.75
2022-09-21T04:13:47.539Z,99.31
2022-09-21T04:14:47.523Z,99.37
2022-09-21T04:15:47.537Z,99.57
2022-09-21T04:16:47.494Z,99.57
2022-09-21T04:17:47.480Z,99.99
2022-09-21T04:18:47.478Z,99.68
2022-09-21T04:19:47.432Z,98.96
2022-09-21T04:20:47.433Z,99.72
2022-09-21T04:21:47.403Z,99.47
2022-09-21T04:40:24.907Z,99.06
2022-09-21T04:45:20.283Z,99.72
2022-09-21T04:46:20.295Z,99.99
2022-09-21T04:47:20.265Z,99.99
2022-09-21T04:48:20.185Z,99.99
2022-09-21T04:49:20.179Z,99.41
2022-09-21T04:50:20.149Z,99.10
2022-09-21T04:56:27.317Z,99.21
2022-09-21T04:59:25.854Z,98.38
2022-09-21T05:00:25.946Z,98.28
2022-09-21T05:01:25.808Z,98.43
2022-09-21T05:02:25.758Z,98.53
2022-09-21T05:03:25.815Z,99.05
2022-09-21T05:04:25.740Z,99.05
2022-09-21T05:05:25.694Z,98.74
2022-09-21T05:06:25.680Z,99.05
2022-09-21T05:07:25.664Z,98.22
2022-09-21T05:08:25.671Z,98.32
2022-09-21T05:09:25.627Z,98.57
2022-09-21T05:10:25.635Z,99.05
2022-09-21T05:11:25.592Z,98.43
2022-09-21T05:12:25.573Z,97.69
2022-09-21T05:13:25.590Z,99.04
2022-09-21T05:14:25.560Z,99.34
2022-09-21T05:15:25.589Z,98.93
2022-09-21T05:16:25.501Z,99.76
2022-09-21T05:17:25.482Z,99.99
2022-09-21T05:18:25.461Z,99.99
2022-09-21T05:19:25.471Z,99.99
2022-09-21T05:20:25.436Z,99.99
2022-09-21T05:21:25.413Z,99.99
2022-09-21T05:22:25.394Z,99.99
2022-09-21T05:23:25.381Z,99.99
2022-09-21T05:24:25.385Z,99.99
2022-09-21T05:25:25.341Z,99.99
2022-09-21T05:26:25.320Z,99.99
2022-09-21T05:27:25.304Z,99.99
2022-09-21T05:28:25.396Z,99.99
2022-09-21T05:29:25.301Z,99.99
2022-09-21T05:30:25.294Z,99.99
2022-09-21T05:31:25.277Z,99.99
2022-09-21T05:32:25.254Z,99.99
2022-09-21T05:33:25.203Z,99.99
2022-09-21T05:34:25.203Z,99.99
2022-09-21T05:35:25.162Z,99.99
2022-09-21T05:36:25.168Z,99.99
2022-09-21T05:37:25.219Z,99.99
2022-09-21T05:38:25.158Z,99.99
2022-09-21T05:39:25.097Z,99.99
2022-09-21T05:40:25.098Z,99.99
2022-09-21T05:41:25.063Z,99.99
2022-09-21T05:42:25.037Z,99.98
2022-09-21T05:43:25.051Z,99.99
2022-09-21T05:44:25.005Z,99.99
2022-09-21T05:45:24.986Z,99.99
2022-09-21T05:46:25.029Z,99.99
2022-09-21T05:47:24.956Z,99.99
2022-09-21T05:48:24.968Z,99.99
2022-09-21T05:49:24.914Z,99.99
2022-09-21T05:50:24.897Z,99.99
2022-09-21T05:51:24.893Z,99.99
2022-09-21T05:52:24.858Z,99.99
2022-09-21T05:53:24.907Z,99.98
2022-09-21T05:54:24.820Z,99.99
2022-09-21T05:55:24.805Z,99.99
2022-09-21T05:56:24.784Z,99.98
2022-09-21T05:57:29.989Z,99.99
2022-09-21T05:58:24.749Z,99.99
2022-09-21T05:59:24.798Z,99.99
2022-09-21T06:00:24.727Z,99.99
2022-09-21T06:01:24.780Z,99.15
2022-09-21T06:02:24.770Z,99.66
2022-09-21T06:03:24.661Z,99.77
2022-09-21T06:04:24.657Z,99.99
2022-09-21T06:05:24.685Z,99.99
2022-09-21T06:06:24.611Z,99.99
2022-09-21T06:07:24.591Z,99.99
2022-09-21T06:08:24.572Z,99.99
2022-09-21T06:09:24.594Z,99.99
2022-09-21T06:10:24.540Z,99.99
2022-09-21T06:11:24.520Z,99.99
2022-09-21T06:12:24.536Z,99.99
2022-09-21T06:13:24.489Z,99.99
2022-09-21T06:14:24.491Z,99.99
2022-09-21T06:15:24.462Z,99.99
2022-09-21T06:16:24.488Z,99.99
2022-09-21T06:17:24.417Z,99.99
2022-09-21T06:18:24.418Z,99.99
2022-09-21T06:19:24.403Z,99.99
2022-09-21T06:20:24.362Z,99.99
2022-09-21T06:21:24.342Z,99.99
2022-09-21T06:22:24.355Z,99.99
2022-09-21T06:23:24.313Z,99.99
2022-09-21T06:24:25.250Z,99.99
2022-09-21T06:25:24.277Z,99.99
2022-09-21T06:26:24.300Z,99.99
2022-09-21T06:27:24.239Z,99.99
2022-09-21T06:28:24.251Z,99.99
2022-09-21T06:29:24.262Z,99.99
2022-09-21T06:30:24.185Z,99.99
2022-09-21T06:31:24.172Z,99.99
2022-09-21T06:32:24.155Z,99.99
2022-09-21T06:33:24.136Z,99.99
2022-09-21T06:34:24.122Z,99.99
2022-09-21T06:35:24.112Z,99.99
2022-09-21T06:36:24.081Z,99.99
2022-09-21T06:37:24.067Z,99.99
2022-09-21T06:38:24.049Z,99.99
2022-09-21T06:39:24.032Z,99.99
2022-09-21T06:40:24.107Z,99.99
2022-09-21T06:41:23.997Z,99.99
2022-09-21T06:42:23.987Z,99.99
2022-09-21T06:43:23.965Z,99.99
2022-09-21T06:44:23.955Z,99.99
2022-09-21T06:45:23.945Z,99.99
2022-09-21T06:46:23.958Z,99.99
2022-09-21T06:47:23.891Z,99.99
2022-09-21T06:48:23.874Z,99.99
2022-09-21T06:49:23.858Z,99.99
2022-09-21T06:50:23.843Z,99.99
2022-09-21T06:51:23.821Z,99.99
2022-09-21T06:52:23.816Z,99.99
2022-09-21T06:53:23.785Z,99.99
2022-09-21T06:54:23.771Z,99.99
2022-09-21T06:55:23.750Z,99.99
2022-09-21T06:56:23.906Z,99.99
2022-09-21T06:57:23.718Z,99.99
2022-09-21T06:58:23.702Z,99.99
2022-09-21T06:59:23.679Z,99.99
2022-09-21T07:00:23.664Z,99.99
2022-09-21T07:01:23.749Z,99.99
2022-09-21T07:02:23.644Z,99.99
2022-09-21T07:03:23.610Z,99.99
2022-09-21T07:04:25.252Z,99.99
2022-09-21T07:05:23.587Z,99.99
2022-09-21T07:06:23.557Z,99.99
2022-09-21T07:07:23.575Z,99.99
2022-09-21T07:10:23.493Z,99.99
2022-09-21T07:11:23.475Z,99.99
2022-09-21T07:12:23.461Z,99.99
2022-09-21T07:13:23.441Z,99.99
2022-09-21T07:14:23.437Z,99.99
2022-09-21T07:15:23.408Z,99.99
2022-09-21T07:16:23.500Z,99.99
2022-09-21T07:17:23.372Z,99.99
2022-09-21T07:18:23.354Z,99.99
2022-09-21T07:19:23.335Z,99.99
2022-09-21T07:20:23.347Z,99.99
2022-09-21T07:21:23.302Z,99.99
2022-09-21T07:22:23.290Z,99.99
2022-09-21T07:23:23.270Z,99.99
2022-09-21T07:24:23.251Z,99.99
2022-09-21T07:25:23.233Z,99.99
2022-09-21T07:26:23.221Z,99.99
2022-09-21T07:27:23.229Z,99.99
2022-09-21T07:28:23.190Z,99.99
2022-09-21T07:29:23.172Z,99.99
2022-09-21T07:30:23.196Z,99.99
2022-09-21T07:31:23.234Z,99.99
2022-09-21T07:32:23.117Z,99.99
2022-09-21T07:33:23.100Z,99.99
2022-09-21T07:34:23.088Z,99.99
2022-09-21T07:35:23.064Z,99.99
2022-09-21T07:36:23.119Z,99.99
2022-09-21T07:37:23.033Z,99.99
2022-09-21T07:38:23.018Z,99.99
2022-09-21T07:39:23.002Z,99.99
2022-09-21T07:40:25.245Z,99.99
2022-09-21T07:41:22.965Z,99.99
2022-09-21T07:42:23.091Z,99.99
2022-09-21T07:43:22.956Z,99.99
2022-09-21T07:44:22.931Z,99.99
2022-09-21T07:45:22.955Z,99.99
2022-09-21T07:46:22.884Z,99.99
2022-09-21T07:47:22.859Z,99.99
2022-09-21T07:48:22.853Z,99.99
2022-09-21T07:49:22.826Z,99.99
2022-09-21T07:50:22.827Z,99.99
2022-09-21T07:51:22.829Z,99.99
2022-09-21T07:52:22.778Z,99.99
2022-09-21T07:53:22.764Z,99.99
2022-09-21T07:54:22.745Z,99.99
2022-09-21T07:55:22.742Z,99.99
2022-09-21T07:56:22.715Z,99.99
2022-09-21T07:57:22.723Z,99.99
2022-09-21T07:58:22.688Z,99.99
2022-09-21T07:59:22.678Z,99.99
2022-09-21T08:00:22.643Z,99.99
2022-09-21T08:01:22.791Z,99.99
2022-09-21T08:02:22.707Z,99.99
2022-09-21T08:03:22.592Z,99.99
2022-09-21T08:04:22.575Z,99.99
2022-09-21T08:05:22.556Z,99.99
2022-09-21T08:06:22.541Z,99.99
2022-09-21T08:07:22.524Z,99.99
2022-09-21T08:08:22.534Z,99.99
2022-09-21T08:09:22.495Z,99.99
2022-09-21T08:10:22.487Z,99.99
2022-09-21T08:11:22.485Z,99.99
2022-09-21T08:12:22.467Z,99.99
2022-09-21T08:13:22.436Z,99.99
2022-09-21T08:14:26.355Z,99.99
2022-09-21T08:15:47.049Z,99.99
2022-09-21T08:16:22.478Z,99.99
2022-09-21T08:17:22.362Z,99.99
2022-09-21T08:18:22.344Z,99.99
2022-09-21T08:19:22.325Z,99.99
2022-09-21T08:20:22.336Z,99.99
2022-09-21T08:21:22.293Z,99.99
2022-09-21T08:22:22.286Z,99.99
2022-09-21T08:23:22.261Z,99.99
2022-09-21T08:24:22.239Z,99.99
2022-09-21T08:25:22.253Z,99.99
2022-09-21T08:26:22.218Z,99.99
2022-09-21T08:27:24.821Z,99.99
2022-09-21T08:28:22.180Z,99.99
2022-09-21T08:29:22.161Z,99.99
2022-09-21T08:30:22.148Z,99.99
2022-09-21T08:31:22.274Z,99.99
2022-09-21T08:32:46.396Z,99.99
2022-09-21T08:33:24.883Z,99.99
2022-09-21T08:34:22.076Z,99.99
2022-09-21T08:35:22.087Z,99.99
2022-09-21T08:36:22.080Z,99.99
2022-09-21T08:37:22.027Z,99.99
2022-09-21T08:38:22.014Z,99.99
2022-09-21T08:39:22.008Z,99.99
2022-09-21T08:40:22.152Z,99.99
2022-09-21T08:41:21.964Z,99.99
2022-09-21T08:42:21.955Z,99.99
2022-09-21T08:43:21.929Z,99.99
2022-09-21T08:44:21.913Z,99.99
2022-09-21T08:45:21.896Z,99.99
2022-09-21T08:46:21.978Z,99.99
2022-09-21T08:47:21.903Z,99.99
2022-09-21T08:48:26.646Z,99.99
2022-09-21T08:49:21.831Z,99.99
2022-09-21T08:50:21.830Z,99.99
2022-09-21T08:51:21.837Z,99.99
2022-09-21T08:52:21.789Z,99.99
2022-09-21T08:53:21.772Z,99.99
2022-09-21T08:54:21.776Z,99.99
2022-09-21T08:55:21.736Z,99.99
2022-09-21T08:56:21.721Z,99.99
2022-09-21T08:57:21.720Z,99.99
2022-09-21T08:58:21.691Z,99.99
2022-09-21T08:59:21.672Z,99.99
2022-09-21T09:00:21.665Z,99.99
2022-09-21T09:01:21.730Z,99.99
2022-09-21T09:02:21.702Z,99.99
2022-09-21T09:03:21.611Z,99.99
2022-09-21T09:04:21.593Z,99.99
2022-09-21T09:05:21.573Z,99.99
2022-09-21T09:06:26.090Z,99.99
2022-09-21T09:07:21.570Z,99.99
2022-09-21T09:08:21.528Z,99.99
2022-09-21T09:09:21.508Z,99.99
2022-09-21T09:10:21.613Z,99.99
2022-09-21T09:11:21.499Z,99.99
2022-09-21T09:12:21.498Z,99.99
2022-09-21T09:13:21.448Z,99.99
2022-09-21T09:14:21.432Z,99.99
2022-09-21T09:15:21.434Z,99.99
2022-09-21T09:16:21.461Z,99.99
2022-09-21T09:17:21.392Z,99.99
2022-09-21T09:18:21.451Z,99.99
2022-09-21T09:19:21.352Z,99.99
2022-09-21T09:20:22.121Z,99.99
2022-09-21T09:21:29.037Z,99.99
2022-09-21T09:22:21.318Z,99.99
2022-09-21T09:23:21.289Z,99.99
2022-09-21T09:24:21.409Z,99.99
2022-09-21T09:25:21.410Z,99.99
2022-09-21T09:26:21.239Z,99.99
2022-09-21T09:27:21.231Z,99.99
2022-09-21T09:28:21.239Z,99.99
2022-09-21T09:29:21.217Z,99.99
2022-09-21T09:30:21.266Z,99.99
2022-09-21T09:31:21.252Z,99.99
2022-09-21T09:32:21.166Z,99.99
2022-09-21T09:33:21.178Z,99.99
2022-09-21T09:34:21.145Z,99.99
2022-09-21T09:35:21.110Z,99.99
2022-09-21T09:36:40.287Z,99.99
2022-09-21T09:37:21.069Z,99.99
2022-09-21T09:38:21.052Z,99.99
2022-09-21T09:39:21.062Z,99.99
2022-09-21T09:40:21.084Z,99.99
2022-09-21T09:41:21.008Z,99.99
2022-09-21T09:42:20.991Z,99.99
2022-09-21T09:43:20.972Z,99.99
2022-09-21T09:44:21.024Z,99.99
2022-09-21T09:45:24.223Z,99.99
2022-09-21T09:46:20.977Z,99.99
2022-09-21T09:47:20.919Z,99.99
2022-09-21T09:48:21.254Z,99.99
2022-09-21T09:49:20.876Z,99.99
2022-09-21T09:50:20.967Z,99.99
2022-09-21T09:51:20.849Z,99.99
2022-09-21T09:52:20.834Z,99.99
2022-09-21T09:53:20.822Z,99.99
2022-09-21T09:54:20.866Z,99.99
2022-09-21T09:55:20.791Z,99.99
2022-09-21T09:56:20.772Z,99.99
2022-09-21T09:57:20.753Z,99.99
2022-09-21T09:58:20.739Z,99.99
2022-09-21T09:59:20.733Z,99.99
2022-09-21T10:00:20.743Z,99.73
2022-09-21T10:01:20.714Z,99.32
2022-09-21T10:02:20.684Z,98.20
2022-09-21T10:03:20.665Z,99.18
2022-09-21T10:04:20.674Z,98.97
2022-09-21T10:05:20.688Z,99.18
2022-09-21T10:06:20.621Z,97.74
2022-09-21T10:07:20.633Z,97.74
2022-09-21T10:08:20.594Z,95.45
2022-09-21T10:09:20.584Z,93.35
2022-09-21T10:10:20.561Z,94.23
2022-09-21T10:11:20.568Z,94.33
2022-09-21T10:12:20.537Z,94.84
2022-09-21T10:13:20.509Z,94.84
2022-09-21T10:14:20.495Z,95.65
2022-09-21T10:15:20.482Z,95.56
2022-09-21T10:16:20.537Z,94.90
2022-09-21T10:17:20.446Z,93.47
2022-09-21T10:18:20.435Z,91.94
2022-09-21T10:19:20.417Z,92.76
2022-09-21T10:20:20.422Z,92.65
2022-09-21T10:21:20.416Z,89.75
2022-09-21T10:22:20.384Z,90.26
2022-09-21T10:23:20.371Z,89.34
2022-09-21T10:24:20.345Z,87.41
2022-09-21T10:25:20.327Z,87.61
2022-09-21T10:26:20.363Z,88.22
2022-09-21T10:27:20.294Z,87.82
2022-09-21T10:28:20.281Z,89.20
2022-09-21T10:29:20.264Z,90.38
2022-09-21T10:30:20.272Z,86.92
2022-09-21T10:31:20.277Z,87.12
2022-09-21T10:32:20.236Z,87.84
2022-09-21T10:33:20.206Z,87.73
2022-09-21T10:34:20.191Z,86.92
2022-09-21T10:35:20.184Z,87.23
2022-09-21T10:36:20.228Z,88.04
2022-09-21T10:37:20.157Z,88.45
2022-09-21T10:38:22.683Z,88.24
2022-09-21T10:39:20.122Z,88.45
2022-09-21T10:40:20.265Z,87.12
2022-09-21T10:41:20.089Z,86.82
2022-09-21T10:42:20.101Z,85.45
2022-09-21T10:43:20.058Z,86.47
2022-09-21T10:44:20.050Z,87.53
2022-09-21T10:45:20.032Z,87.37
2022-09-21T10:46:20.056Z,84.37
2022-09-21T10:47:20.039Z,84.64
2022-09-21T10:48:19.995Z,85.14
2022-09-21T10:49:19.974Z,84.64
2022-09-21T10:50:19.980Z,84.03
2022-09-21T10:51:19.947Z,83.72
2022-09-21T10:52:19.955Z,83.51
2022-09-21T10:53:19.912Z,84.23
2022-09-21T10:54:19.902Z,85.25
2022-09-21T10:55:19.885Z,86.27
2022-09-21T10:56:19.923Z,86.57
2022-09-21T10:57:19.881Z,83.11
2022-09-21T10:58:19.841Z,79.50
2022-09-21T10:59:19.831Z,80.42
2022-09-21T11:00:19.851Z,79.27
2022-09-21T11:01:19.822Z,81.71
2022-09-21T11:02:19.885Z,81.10
2022-09-21T11:03:19.771Z,78.55
2022-09-21T11:04:19.753Z,79.33
2022-09-21T11:05:19.744Z,80.04
2022-09-21T11:06:19.725Z,81.77
2022-09-21T11:07:19.713Z,80.65
2022-09-21T11:08:19.731Z,80.96
2022-09-21T11:09:19.690Z,80.38
2022-09-21T11:10:19.665Z,80.99
2022-09-21T11:11:19.659Z,81.10
2022-09-21T11:12:19.646Z,80.59
2022-09-21T11:13:19.638Z,80.59
2022-09-21T11:14:19.764Z,81.40
2022-09-21T11:15:19.602Z,80.38
2022-09-21T11:16:19.643Z,80.49
2022-09-21T11:17:19.591Z,79.16
2022-09-21T11:18:19.557Z,79.16
2022-09-21T11:19:19.542Z,80.69
2022-09-21T11:20:19.557Z,82.01
2022-09-21T11:21:19.507Z,79.77
2022-09-21T11:22:19.495Z,78.86
2022-09-21T11:23:19.479Z,77.94
2022-09-21T11:24:19.463Z,79.16
2022-09-21T11:25:19.450Z,76.89
2022-09-21T11:26:19.447Z,74.45
2022-09-21T11:27:19.434Z,76.45
2022-09-21T11:28:19.409Z,76.95
2022-09-21T11:29:19.454Z,76.55
2022-09-21T11:30:19.429Z,74.92
2022-09-21T11:31:19.489Z,75.84
2022-09-21T11:32:19.347Z,77.20
2022-09-21T11:33:19.350Z,76.68
2022-09-21T11:34:19.318Z,77.40
2022-09-21T11:35:19.306Z,75.37
2022-09-21T11:36:19.445Z,75.98
2022-09-21T11:37:19.280Z,75.98
2022-09-21T11:38:19.273Z,78.01
2022-09-21T11:39:19.249Z,78.92
2022-09-21T11:40:19.382Z,77.70
2022-09-21T11:41:19.218Z,77.09
2022-09-21T11:42:19.242Z,75.37
2022-09-21T11:43:22.647Z,77.36
2022-09-21T11:44:19.374Z,76.75
2022-09-21T11:45:19.166Z,76.55
2022-09-21T11:46:19.246Z,75.70
2022-09-21T11:47:19.145Z,77.36
2022-09-21T11:48:19.118Z,76.86
2022-09-21T11:49:19.139Z,76.92
2022-09-21T11:50:30.291Z,77.02
2022-09-21T11:51:19.083Z,77.53
2022-09-21T11:52:19.060Z,76.14
2022-09-21T11:53:19.052Z,76.10
2022-09-21T11:54:19.060Z,75.29
2022-09-21T11:55:19.022Z,73.36
2022-09-21T11:56:19.007Z,72.21
2022-09-21T11:57:19.008Z,74.75
2022-09-21T11:58:18.977Z,73.22
2022-09-21T11:59:19.015Z,73.33
2022-09-21T12:00:19.009Z,75.02
2022-09-21T12:01:18.949Z,74.95
2022-09-21T12:02:19.069Z,74.04
2022-09-21T12:03:18.908Z,69.37
2022-09-21T12:04:18.912Z,66.12
2022-09-21T12:05:19.039Z,65.41
2022-09-21T12:06:18.873Z,65.41
2022-09-21T12:07:18.853Z,67.44
2022-09-21T12:08:18.855Z,68.15
2022-09-21T12:09:18.822Z,66.83
2022-09-21T12:10:18.812Z,66.52
2022-09-21T12:11:18.824Z,67.91
2022-09-21T12:12:18.944Z,67.47
2022-09-21T12:13:18.772Z,65.27
2022-09-21T12:14:18.753Z,65.48
2022-09-21T12:15:18.774Z,65.88
2022-09-21T12:16:18.746Z,65.78
2022-09-21T12:17:18.717Z,70.15
2022-09-21T12:18:18.726Z,66.77
2022-09-21T12:19:18.686Z,67.98
2022-09-21T12:20:18.675Z,69.30
2022-09-21T12:21:18.659Z,67.38
2022-09-21T12:22:18.648Z,63.82
2022-09-21T12:23:18.655Z,65.24
2022-09-21T12:24:18.617Z,64.13
2022-09-21T12:25:18.617Z,61.79
2022-09-21T12:26:18.586Z,63.52
2022-09-21T12:27:18.616Z,64.03
2022-09-21T12:28:18.562Z,64.13
2022-09-21T12:29:18.556Z,64.03
2022-09-21T12:30:18.589Z,65.85
2022-09-21T12:31:18.555Z,65.85
2022-09-21T12:32:18.506Z,67.07
2022-09-21T12:33:18.497Z,67.98
2022-09-21T12:34:18.477Z,68.22
2022-09-21T12:35:18.466Z,67.71
2022-09-21T12:36:18.478Z,66.69
2022-09-21T12:37:18.438Z,68.12
2022-09-21T12:38:18.421Z,64.06
2022-09-21T12:39:18.419Z,62.43
2022-09-21T12:40:18.443Z,62.53
2022-09-21T12:41:18.636Z,64.46
2022-09-21T12:42:18.366Z,67.81
2022-09-21T12:43:18.356Z,68.12
2022-09-21T12:44:18.339Z,69.13
2022-09-21T12:45:18.331Z,69.03
2022-09-21T12:46:18.379Z,69.37
2022-09-21T12:47:18.329Z,69.57
2022-09-21T12:48:18.309Z,68.01
2022-09-21T12:49:18.276Z,69.13
2022-09-21T12:50:18.260Z,69.54
2022-09-21T12:51:18.281Z,67.41
2022-09-21T12:52:18.257Z,68.01
2022-09-21T12:53:18.238Z,67.10
2022-09-21T12:54:18.207Z,63.95
2022-09-21T12:55:18.195Z,64.36
2022-09-21T12:56:18.182Z,65.88
2022-09-21T12:57:42.499Z,65.95
2022-09-21T12:58:18.221Z,66.16
2022-09-21T12:59:18.147Z,66.56
2022-09-21T13:00:18.117Z,65.75
2022-09-21T13:01:18.208Z,65.75
2022-09-21T13:02:18.528Z,65.14
2022-09-21T13:03:18.079Z,64.64
2022-09-21T13:04:18.120Z,64.70
2022-09-21T13:05:18.072Z,65.31
2022-09-21T13:06:18.041Z,65.62
2022-09-21T13:07:18.040Z,63.08
2022-09-21T13:08:18.015Z,64.17
2022-09-21T13:09:18.000Z,64.81
2022-09-21T13:10:18.042Z,67.72
2022-09-21T13:11:18.152Z,64.75
2022-09-21T13:12:17.958Z,62.92
2022-09-21T13:13:18.002Z,64.14
2022-09-21T13:14:17.933Z,65.83
2022-09-21T13:15:17.921Z,68.56
2022-09-21T13:16:17.911Z,62.69
2022-09-21T13:17:17.891Z,60.94
2022-09-21T13:18:17.877Z,61.85
2022-09-21T13:19:17.896Z,62.05
2022-09-21T13:20:17.869Z,59.65
2022-09-21T13:21:17.843Z,58.74
2022-09-21T13:22:17.849Z,65.02
2022-09-21T13:23:17.817Z,60.66